createdAt,value
2023-03-14T00:01:49.435Z,2.15
2023-03-14T00:05:49.562Z,2.13
2023-03-14T00:09:49.742Z,2.15
2023-03-14T00:13:49.942Z,2.18
2023-03-14T00:17:50.147Z,2.14
2023-03-14T00:21:50.296Z,2.14
2023-03-14T00:25:50.506Z,2.13
2023-03-14T00:29:50.697Z,2.12
2023-03-14T00:33:50.931Z,2.13
2023-03-14T00:37:51.120Z,2.10
2023-03-14T00:41:51.312Z,2.08
2023-03-14T00:45:51.478Z,2.08
2023-03-14T00:49:51.716Z,2.14
2023-03-14T00:53:51.893Z,2.13
2023-03-14T00:57:52.103Z,2.10
2023-03-14T01:01:52.414Z,2.14
2023-03-14T01:05:52.594Z,2.10
2023-03-14T01:09:52.508Z,2.10
2023-03-14T01:13:52.424Z,2.11
2023-03-14T01:17:52.414Z,2.08
2023-03-14T01:21:52.479Z,2.08
2023-03-14T01:25:52.406Z,2.11
2023-03-14T01:29:52.643Z,2.07
2023-03-14T01:33:52.292Z,2.08
2023-03-14T01:37:52.307Z,2.07
2023-03-14T01:41:52.254Z,2.08
2023-03-14T01:45:52.205Z,2.07
2023-03-14T01:49:52.191Z,2.09
2023-03-14T01:53:52.398Z,2.10
2023-03-14T01:57:52.699Z,2.06
2023-03-14T02:01:52.838Z,2.11
2023-03-14T02:05:52.834Z,2.07
2023-03-14T02:09:52.775Z,2.06
2023-03-14T02:13:52.738Z,2.07
2023-03-14T02:17:52.733Z,2.06
2023-03-14T02:21:52.641Z,2.06
2023-03-14T02:25:52.617Z,2.10
2023-03-14T02:29:52.593Z,2.07
2023-03-14T02:33:52.563Z,2.01
2023-03-14T02:37:52.494Z,2.03
2023-03-14T02:41:52.605Z,2.07
2023-03-14T02:45:52.637Z,2.10
2023-03-14T02:49:52.806Z,2.05
2023-03-14T02:53:53.028Z,2.06
2023-03-14T02:57:53.010Z,2.07
2023-03-14T03:01:52.983Z,2.07
2023-03-14T03:05:52.925Z,2.06
2023-03-14T03:09:52.919Z,2.05
2023-03-14T03:13:52.898Z,2.04
2023-03-14T03:17:52.811Z,2.01
2023-03-14T03:21:52.792Z,1.98
2023-03-14T03:25:52.859Z,2.02
2023-03-14T03:29:53.161Z,2.02
2023-03-14T03:33:52.735Z,2.02
2023-03-14T03:37:52.739Z,2.05
2023-03-14T03:41:52.728Z,2.06
2023-03-14T03:45:52.686Z,2.04
2023-03-14T03:49:52.654Z,2.02
2023-03-14T03:53:52.658Z,2.02
2023-03-14T03:57:52.542Z,2.06
2023-03-14T04:01:52.547Z,2.00
2023-03-14T04:05:52.546Z,2.01
2023-03-14T04:09:52.499Z,2.01
2023-03-14T04:13:52.683Z,2.01
2023-03-14T04:17:52.773Z,1.97
2023-03-14T04:21:52.505Z,1.98
2023-03-14T04:25:52.695Z,2.00
2023-03-14T04:29:52.475Z,1.99
2023-03-14T04:33:52.401Z,1.99
2023-03-14T04:37:52.385Z,2.00
2023-03-14T04:41:52.330Z,1.96
2023-03-14T04:45:52.281Z,1.98
2023-03-14T04:49:52.372Z,1.98
2023-03-14T04:53:52.321Z,2.00
2023-03-14T04:57:52.253Z,1.95
2023-03-14T05:01:52.284Z,1.97
2023-03-14T05:05:52.206Z,1.81
2023-03-14T05:09:52.111Z,1.67
2023-03-14T05:13:52.124Z,1.47
2023-03-14T05:17:52.070Z,1.24
2023-03-14T05:21:52.073Z,1.06
2023-03-14T05:25:52.031Z,1.04
2023-03-14T05:29:52.235Z,0.85
2023-03-14T05:33:52.182Z,0.96
2023-03-14T05:37:52.090Z,1.01
2023-03-14T05:41:52.036Z,1.02
2023-03-14T05:45:52.058Z,1.09
2023-03-14T05:49:51.991Z,1.11
2023-03-14T05:53:51.980Z,1.16
2023-03-14T05:57:51.932Z,1.19
2023-03-14T06:01:51.949Z,1.19
2023-03-14T06:05:51.858Z,1.25
2023-03-14T06:09:51.870Z,1.25
2023-03-14T06:13:51.873Z,1.27
2023-03-14T06:17:52.046Z,1.30
2023-03-14T06:21:52.694Z,1.30
2023-03-14T06:25:52.241Z,1.31
2023-03-14T06:29:52.176Z,1.33
2023-03-14T06:33:52.108Z,1.35
2023-03-14T06:37:52.133Z,1.43
2023-03-14T06:41:52.150Z,1.65
2023-03-14T06:45:52.108Z,1.81
2023-03-14T06:49:51.957Z,1.83
2023-03-14T06:53:52.096Z,2.07
2023-03-14T06:57:51.871Z,1.99
2023-03-14T07:01:52.186Z,2.02
2023-03-14T07:05:52.840Z,1.97
2023-03-14T07:09:51.945Z,1.71
2023-03-14T07:13:51.770Z,1.53
2023-03-14T07:17:51.755Z,1.27
2023-03-14T07:21:51.913Z,1.13
2023-03-14T07:26:06.759Z,1.09
2023-03-14T07:29:51.867Z,1.08
2023-03-14T07:33:51.815Z,1.07
2023-03-14T07:37:51.804Z,1.05
2023-03-14T07:41:51.843Z,1.09
2023-03-14T07:45:59.063Z,1.26
2023-03-14T07:49:52.666Z,1.34
2023-03-14T07:53:51.614Z,1.41
2023-03-14T07:57:51.694Z,1.26
2023-03-14T08:01:51.859Z,1.25
2023-03-14T08:05:51.979Z,1.27
2023-03-14T08:09:52.167Z,0.99
2023-03-14T08:13:52.303Z,0.85
2023-03-14T08:17:52.351Z,0.78
2023-03-14T08:21:52.473Z,0.84
2023-03-14T08:25:52.500Z,0.82
2023-03-14T08:29:52.575Z,0.93
2023-03-14T08:33:52.612Z,0.93
2023-03-14T08:37:52.860Z,1.22
2023-03-14T08:41:53.012Z,1.45
2023-03-14T08:45:53.821Z,1.56
2023-03-14T08:49:53.405Z,1.78
2023-03-14T08:53:53.315Z,1.89
2023-03-14T08:57:53.323Z,1.92
2023-03-14T09:01:53.670Z,2.13
2023-03-14T09:05:54.392Z,2.17
2023-03-14T09:09:53.462Z,2.21
2023-03-14T09:13:53.798Z,2.20
2023-03-14T09:17:53.591Z,2.19
2023-03-14T09:21:53.507Z,2.11
2023-03-14T09:25:53.476Z,2.08
2023-03-14T09:29:53.450Z,0.92
2023-03-14T09:33:53.444Z,0.70
2023-03-14T09:37:53.362Z,0.58
2023-03-14T09:41:53.361Z,0.62
2023-03-14T09:45:53.327Z,0.80
2023-03-14T09:49:53.504Z,0.92
2023-03-14T09:53:53.263Z,0.99
2023-03-14T09:57:53.315Z,0.99
2023-03-14T10:01:53.230Z,0.94
2023-03-14T10:05:53.134Z,0.91
2023-03-14T10:09:53.680Z,0.99
2023-03-14T10:13:53.143Z,1.10
2023-03-14T10:17:53.055Z,1.00
2023-03-14T10:21:53.018Z,0.91
2023-03-14T10:25:53.030Z,0.93
2023-03-14T10:29:52.974Z,0.88
2023-03-14T10:33:53.630Z,1.08
2023-03-14T10:37:52.886Z,1.09
2023-03-14T10:41:52.968Z,1.13
2023-03-14T10:45:52.915Z,1.38
2023-03-14T10:49:53.915Z,1.54
2023-03-14T10:53:52.781Z,1.53
2023-03-14T10:57:52.720Z,1.56
2023-03-14T11:01:52.699Z,1.56
2023-03-14T11:05:52.619Z,1.53
2023-03-14T11:09:52.560Z,1.48
2023-03-14T11:13:52.591Z,1.63
2023-03-14T11:17:52.792Z,1.41
2023-03-14T11:21:52.737Z,1.43
2023-03-14T11:25:53.368Z,1.25
2023-03-14T11:29:53.407Z,1.00
2023-03-14T11:33:52.689Z,1.24
2023-03-14T11:37:52.923Z,1.41
2023-03-14T11:41:52.564Z,1.61
2023-03-14T11:45:52.591Z,1.44
2023-03-14T11:49:52.462Z,1.50
2023-03-14T11:53:53.109Z,1.57
2023-03-14T11:57:52.400Z,1.63
2023-03-14T12:01:52.430Z,1.47
2023-03-14T12:05:52.402Z,1.59
2023-03-14T12:09:52.584Z,1.45
2023-03-14T12:13:52.708Z,1.49
2023-03-14T12:17:52.996Z,1.70
2023-03-14T12:21:52.997Z,1.62
2023-03-14T12:25:52.894Z,1.01
2023-03-14T12:29:52.853Z,0.97
2023-03-14T12:33:52.801Z,0.95
2023-03-14T12:37:52.778Z,0.85
2023-03-14T12:41:52.700Z,0.66
2023-03-14T12:45:52.766Z,0.74
2023-03-14T12:49:52.660Z,0.70
2023-03-14T12:53:52.628Z,0.73
2023-03-14T12:57:52.568Z,0.81
2023-03-14T13:01:52.541Z,0.76
2023-03-14T13:05:52.499Z,1.20
2023-03-14T13:09:52.411Z,1.34
2023-03-14T13:13:52.410Z,1.29
2023-03-14T13:17:52.516Z,1.42
2023-03-14T13:21:52.354Z,1.56
2023-03-14T13:25:52.334Z,1.71
2023-03-14T13:29:52.374Z,1.70
2023-03-14T13:33:52.263Z,1.61
2023-03-14T13:37:57.922Z,1.84
2023-03-14T13:41:53.370Z,1.70
2023-03-14T13:45:52.512Z,1.77
2023-03-14T13:49:52.310Z,1.64
2023-03-14T13:53:52.337Z,1.69
2023-03-14T13:57:52.331Z,2.05
2023-03-14T14:01:52.542Z,1.99
2023-03-14T14:05:52.381Z,1.62
2023-03-14T14:09:52.405Z,1.59
2023-03-14T14:13:52.547Z,1.45
2023-03-14T14:17:52.510Z,1.40
2023-03-14T14:21:53.409Z,1.46
2023-03-14T14:25:52.614Z,1.58
2023-03-14T14:29:52.640Z,1.77
2023-03-14T14:33:52.567Z,2.03
2023-03-14T14:37:52.552Z,2.06
2023-03-14T14:41:52.502Z,2.20
2023-03-14T14:45:52.563Z,1.97
2023-03-14T14:49:52.439Z,1.67
2023-03-14T14:53:52.410Z,1.53
2023-03-14T14:57:52.369Z,1.50
2023-03-14T15:01:52.396Z,1.62
2023-03-14T15:05:52.303Z,1.50
2023-03-14T15:09:52.246Z,1.42
2023-03-14T15:13:52.260Z,1.30
2023-03-14T15:17:52.161Z,1.33
2023-03-14T15:21:52.118Z,1.32
2023-03-14T15:25:55.841Z,1.44
2023-03-14T15:29:52.033Z,1.44
2023-03-14T15:33:51.982Z,1.50
2023-03-14T15:37:52.048Z,1.52
2023-03-14T15:41:51.920Z,1.51
2023-03-14T15:45:52.112Z,1.55
2023-03-14T15:49:51.866Z,1.56
2023-03-14T15:53:51.827Z,1.56
2023-03-14T15:57:51.812Z,1.56
2023-03-14T16:01:51.791Z,1.57
2023-03-14T16:05:51.711Z,1.56
2023-03-14T16:09:51.696Z,1.55
2023-03-14T16:13:51.609Z,1.57
2023-03-14T16:17:51.948Z,1.57
2023-03-14T16:21:52.324Z,1.61
2023-03-14T16:25:51.515Z,1.64
2023-03-14T16:29:51.539Z,1.66
2023-03-14T16:33:51.534Z,1.67
2023-03-14T16:37:51.572Z,1.63
2023-03-14T16:41:51.701Z,1.65
2023-03-14T16:45:51.937Z,1.67
2023-03-14T16:49:51.890Z,1.68
2023-03-14T16:53:52.097Z,1.69
2023-03-14T16:57:52.115Z,1.68
2023-03-14T17:01:52.378Z,1.70
2023-03-14T17:05:52.388Z,1.67
2023-03-14T17:09:52.511Z,1.70
2023-03-14T17:13:52.696Z,1.68
2023-03-14T17:17:52.811Z,1.67
2023-03-14T17:21:57.908Z,1.68
2023-03-14T17:25:53.948Z,1.67
2023-03-14T17:29:52.893Z,1.66
2023-03-14T17:33:52.878Z,1.61
2023-03-14T17:37:53.009Z,1.63
2023-03-14T17:41:53.329Z,1.64
2023-03-14T17:45:53.378Z,1.58
2023-03-14T17:49:53.533Z,1.57
2023-03-14T17:53:53.778Z,1.58
2023-03-14T17:57:53.961Z,1.56
2023-03-14T18:01:54.218Z,1.58
2023-03-14T18:05:54.268Z,1.54
2023-03-14T18:09:54.530Z,1.55
2023-03-14T18:13:54.720Z,1.55
2023-03-14T18:17:54.907Z,1.55
2023-03-14T18:21:55.131Z,1.50
2023-03-14T18:25:55.092Z,1.52
2023-03-14T18:29:55.052Z,1.49
2023-03-14T18:33:55.045Z,1.51
2023-03-14T18:37:54.979Z,1.54
2023-03-14T18:41:54.968Z,1.25
2023-03-14T18:45:54.919Z,0.94
2023-03-14T18:49:54.868Z,0.72
2023-03-14T18:54:02.915Z,0.74
2023-03-14T18:57:55.818Z,0.71
2023-03-14T19:01:54.805Z,0.65
2023-03-14T19:05:54.951Z,0.55
2023-03-14T19:09:54.904Z,0.57
2023-03-14T19:13:54.943Z,0.72
2023-03-14T19:17:54.795Z,0.80
2023-03-14T19:21:54.863Z,0.87
2023-03-14T19:25:54.793Z,0.91
2023-03-14T19:29:54.708Z,1.04
2023-03-14T19:33:54.654Z,1.07
2023-03-14T19:37:54.624Z,1.04
2023-03-14T19:41:54.602Z,1.09
2023-03-14T19:45:54.837Z,1.13
2023-03-14T19:49:54.656Z,1.16
2023-03-14T19:53:54.713Z,1.22
2023-03-14T19:57:54.656Z,1.22
2023-03-14T20:01:54.563Z,1.24
2023-03-14T20:05:54.574Z,1.25
2023-03-14T20:09:54.479Z,1.30
2023-03-14T20:13:54.452Z,1.33
2023-03-14T20:17:54.444Z,1.34
2023-03-14T20:21:54.409Z,1.39
2023-03-14T20:25:54.372Z,1.38
2023-03-14T20:29:54.606Z,1.38
2023-03-14T20:33:54.613Z,1.39
2023-03-14T20:37:54.544Z,1.40
2023-03-14T20:41:54.486Z,1.39
2023-03-14T20:45:54.631Z,1.37
2023-03-14T20:49:54.482Z,1.41
2023-03-14T20:53:54.423Z,1.38
2023-03-14T20:57:54.374Z,1.35
2023-03-14T21:01:54.414Z,1.39
2023-03-14T21:05:54.255Z,1.40
2023-03-14T21:09:54.231Z,1.38
2023-03-14T21:13:54.189Z,1.42
2023-03-14T21:17:54.129Z,1.40
2023-03-14T21:21:54.159Z,1.41
2023-03-14T21:25:54.185Z,1.39
2023-03-14T21:29:54.235Z,1.42
2023-03-14T21:33:54.301Z,1.41
2023-03-14T21:37:54.446Z,1.40
2023-03-14T21:41:54.356Z,1.42
2023-03-14T21:45:54.484Z,1.37
2023-03-14T21:49:54.513Z,1.39
2023-03-14T21:53:54.632Z,1.43
2023-03-14T21:57:54.547Z,1.44
2023-03-14T22:01:54.615Z,1.44
2023-03-14T22:05:54.495Z,1.43
2023-03-14T22:09:54.425Z,1.45
2023-03-14T22:13:54.450Z,1.43
2023-03-14T22:17:54.370Z,1.41
2023-03-14T22:21:54.325Z,1.44
2023-03-14T22:25:54.317Z,1.41
2023-03-14T22:29:54.258Z,1.43
2023-03-14T22:33:54.219Z,1.43
2023-03-14T22:37:54.202Z,1.45
2023-03-14T22:41:54.164Z,1.45
2023-03-14T22:45:54.188Z,1.43
2023-03-14T22:49:54.066Z,1.44
2023-03-14T22:53:54.039Z,1.45
2023-03-14T22:57:53.992Z,1.41
2023-03-14T23:01:53.948Z,1.44
2023-03-14T23:05:53.901Z,1.43
2023-03-14T23:09:53.892Z,1.44
2023-03-14T23:13:53.851Z,1.43
2023-03-14T23:17:53.834Z,1.44
2023-03-14T23:21:53.771Z,1.44
2023-03-14T23:25:54.040Z,1.44
2023-03-14T23:29:54.650Z,1.41
2023-03-14T23:33:53.663Z,1.44
2023-03-14T23:37:53.618Z,1.47
2023-03-14T23:41:53.631Z,1.42
2023-03-14T23:45:53.585Z,1.42
2023-03-14T23:49:53.561Z,1.44
2023-03-14T23:53:53.491Z,1.45
2023-03-14T23:57:53.446Z,1.43
